sensor_id;sensor_type;location;lat;lon;timestamp;P1;durP1;ratioP1;P2;durP2;ratioP2
70967;SDS011;58629;48.808;8.820;2024-02-15T00:01:25;0.97;;;0.60;;
70967;SDS011;58629;48.808;8.820;2024-02-15T00:03:51;0.97;;;0.70;;
70967;SDS011;58629;48.808;8.820;2024-02-15T00:06:16;1.67;;;0.77;;
70967;SDS011;58629;48.808;8.820;2024-02-15T00:08:41;1.27;;;0.80;;
70967;SDS011;58629;48.808;8.820;2024-02-15T00:11:07;1.10;;;0.63;;
70967;SDS011;58629;48.808;8.820;2024-02-15T00:13:34;1.13;;;0.77;;
70967;SDS011;58629;48.808;8.820;2024-02-15T00:16:00;1.63;;;0.88;;
70967;SDS011;58629;48.808;8.820;2024-02-15T00:18:26;2.15;;;0.90;;
70967;SDS011;58629;48.808;8.820;2024-02-15T00:20:54;2.00;;;0.70;;
70967;SDS011;58629;48.808;8.820;2024-02-15T00:23:19;1.30;;;0.70;;
70967;SDS011;58629;48.808;8.820;2024-02-15T00:25:45;1.03;;;0.63;;
70967;SDS011;58629;48.808;8.820;2024-02-15T00:28:13;2.03;;;1.03;;
70967;SDS011;58629;48.808;8.820;2024-02-15T00:30:38;1.88;;;0.90;;
70967;SDS011;58629;48.808;8.820;2024-02-15T00:33:04;0.97;;;0.60;;
70967;SDS011;58629;48.808;8.820;2024-02-15T00:35:29;2.00;;;1.17;;
70967;SDS011;58629;48.808;8.820;2024-02-15T00:37:54;1.13;;;0.70;;
70967;SDS011;58629;48.808;8.820;2024-02-15T00:40:20;1.45;;;0.80;;
70967;SDS011;58629;48.808;8.820;2024-02-15T00:42:46;2.13;;;0.70;;
70967;SDS011;58629;48.808;8.820;2024-02-15T00:45:12;1.33;;;0.68;;
70967;SDS011;58629;48.808;8.820;2024-02-15T00:47:37;1.20;;;0.80;;
70967;SDS011;58629;48.808;8.820;2024-02-15T00:50:03;1.10;;;0.60;;
70967;SDS011;58629;48.808;8.820;2024-02-15T00:52:29;1.33;;;0.70;;
70967;SDS011;58629;48.808;8.820;2024-02-15T00:54:55;0.90;;;0.60;;
70967;SDS011;58629;48.808;8.820;2024-02-15T00:57:21;0.90;;;0.65;;
70967;SDS011;58629;48.808;8.820;2024-02-15T00:59:46;1.20;;;0.70;;
70967;SDS011;58629;48.808;8.820;2024-02-15T01:02:12;1.70;;;0.73;;
70967;SDS011;58629;48.808;8.820;2024-02-15T01:04:38;0.90;;;0.68;;
70967;SDS011;58629;48.808;8.820;2024-02-15T01:07:04;0.95;;;0.60;;
70967;SDS011;58629;48.808;8.820;2024-02-15T01:09:29;1.33;;;0.70;;
70967;SDS011;58629;48.808;8.820;2024-02-15T01:11:55;1.67;;;0.80;;
70967;SDS011;58629;48.808;8.820;2024-02-15T01:14:20;1.07;;;0.53;;
70967;SDS011;58629;48.808;8.820;2024-02-15T01:16:45;1.50;;;0.63;;
70967;SDS011;58629;48.808;8.820;2024-02-15T01:19:11;2.15;;;0.80;;
70967;SDS011;58629;48.808;8.820;2024-02-15T01:21:37;1.60;;;0.70;;
70967;SDS011;58629;48.808;8.820;2024-02-15T01:24:02;1.33;;;0.70;;
70967;SDS011;58629;48.808;8.820;2024-02-15T01:26:31;1.63;;;0.85;;
70967;SDS011;58629;48.808;8.820;2024-02-15T01:28:57;1.05;;;0.73;;
70967;SDS011;58629;48.808;8.820;2024-02-15T01:31:22;1.13;;;0.60;;
70967;SDS011;58629;48.808;8.820;2024-02-15T01:33:47;1.03;;;0.80;;
70967;SDS011;58629;48.808;8.820;2024-02-15T01:36:13;1.60;;;0.70;;
70967;SDS011;58629;48.808;8.820;2024-02-15T01:38:42;1.38;;;0.70;;
70967;SDS011;58629;48.808;8.820;2024-02-15T01:41:08;1.20;;;0.70;;
70967;SDS011;58629;48.808;8.820;2024-02-15T01:43:33;1.67;;;0.90;;
70967;SDS011;58629;48.808;8.820;2024-02-15T01:46:00;1.10;;;0.70;;
70967;SDS011;58629;48.808;8.820;2024-02-15T01:48:29;2.55;;;0.93;;
70967;SDS011;58629;48.808;8.820;2024-02-15T01:50:55;2.00;;;0.98;;
70967;SDS011;58629;48.808;8.820;2024-02-15T01:53:21;1.67;;;0.80;;
70967;SDS011;58629;48.808;8.820;2024-02-15T01:55:47;1.30;;;0.80;;
70967;SDS011;58629;48.808;8.820;2024-02-15T01:58:12;3.57;;;1.20;;
70967;SDS011;58629;48.808;8.820;2024-02-15T02:00:38;1.73;;;0.90;;
70967;SDS011;58629;48.808;8.820;2024-02-15T02:03:04;1.38;;;0.90;;
70967;SDS011;58629;48.808;8.820;2024-02-15T02:05:30;1.60;;;0.80;;
70967;SDS011;58629;48.808;8.820;2024-02-15T02:07:56;2.45;;;1.02;;
70967;SDS011;58629;48.808;8.820;2024-02-15T02:10:29;1.90;;;1.00;;
70967;SDS011;58629;48.808;8.820;2024-02-15T02:12:57;1.77;;;0.90;;
70967;SDS011;58629;48.808;8.820;2024-02-15T02:15:24;2.17;;;1.00;;
70967;SDS011;58629;48.808;8.820;2024-02-15T02:17:49;1.33;;;0.70;;
70967;SDS011;58629;48.808;8.820;2024-02-15T02:20:16;1.85;;;0.90;;
70967;SDS011;58629;48.808;8.820;2024-02-15T02:22:41;2.43;;;1.20;;
70967;SDS011;58629;48.808;8.820;2024-02-15T02:25:13;1.92;;;1.10;;
70967;SDS011;58629;48.808;8.820;2024-02-15T02:27:38;2.47;;;1.40;;
70967;SDS011;58629;48.808;8.820;2024-02-15T02:30:05;2.43;;;1.30;;
70967;SDS011;58629;48.808;8.820;2024-02-15T02:32:40;2.15;;;1.10;;
70967;SDS011;58629;48.808;8.820;2024-02-15T02:35:06;2.33;;;1.13;;
70967;SDS011;58629;48.808;8.820;2024-02-15T02:37:32;2.25;;;1.10;;
70967;SDS011;58629;48.808;8.820;2024-02-15T02:40:01;2.63;;;1.23;;
70967;SDS011;58629;48.808;8.820;2024-02-15T02:42:27;2.53;;;1.10;;
70967;SDS011;58629;48.808;8.820;2024-02-15T02:44:53;2.08;;;1.15;;
70967;SDS011;58629;48.808;8.820;2024-02-15T02:47:18;1.73;;;1.00;;
70967;SDS011;58629;48.808;8.820;2024-02-15T02:49:44;1.50;;;1.10;;
70967;SDS011;58629;48.808;8.820;2024-02-15T02:52:09;1.57;;;0.97;;
70967;SDS011;58629;48.808;8.820;2024-02-15T02:54:34;2.60;;;1.00;;
70967;SDS011;58629;48.808;8.820;2024-02-15T02:57:00;1.83;;;0.90;;
70967;SDS011;58629;48.808;8.820;2024-02-15T02:59:25;2.17;;;1.00;;
70967;SDS011;58629;48.808;8.820;2024-02-15T03:01:51;2.07;;;1.00;;
70967;SDS011;58629;48.808;8.820;2024-02-15T03:04:16;1.60;;;1.20;;
70967;SDS011;58629;48.808;8.820;2024-02-15T03:06:42;3.10;;;1.00;;
70967;SDS011;58629;48.808;8.820;2024-02-15T03:09:08;1.55;;;1.20;;
70967;SDS011;58629;48.808;8.820;2024-02-15T03:11:34;1.40;;;0.80;;
70967;SDS011;58629;48.808;8.820;2024-02-15T03:14:01;2.37;;;1.00;;
70967;SDS011;58629;48.808;8.820;2024-02-15T03:16:29;2.08;;;1.10;;
70967;SDS011;58629;48.808;8.820;2024-02-15T03:18:54;1.67;;;1.17;;
70967;SDS011;58629;48.808;8.820;2024-02-15T03:21:20;2.03;;;1.13;;
70967;SDS011;58629;48.808;8.820;2024-02-15T03:23:45;1.90;;;1.20;;
70967;SDS011;58629;48.808;8.820;2024-02-15T03:26:10;1.70;;;1.20;;
70967;SDS011;58629;48.808;8.820;2024-02-15T03:28:36;1.52;;;0.90;;
70967;SDS011;58629;48.808;8.820;2024-02-15T03:31:03;1.80;;;1.00;;
70967;SDS011;58629;48.808;8.820;2024-02-15T03:33:28;1.87;;;1.00;;
70967;SDS011;58629;48.808;8.820;2024-02-15T03:35:58;2.47;;;1.17;;
70967;SDS011;58629;48.808;8.820;2024-02-15T03:38:27;2.08;;;1.00;;
70967;SDS011;58629;48.808;8.820;2024-02-15T03:40:54;1.30;;;0.90;;
70967;SDS011;58629;48.808;8.820;2024-02-15T03:43:20;1.80;;;0.77;;
70967;SDS011;58629;48.808;8.820;2024-02-15T03:45:45;1.50;;;1.00;;
70967;SDS011;58629;48.808;8.820;2024-02-15T03:48:11;1.73;;;1.00;;
70967;SDS011;58629;48.808;8.820;2024-02-15T03:50:37;2.38;;;1.00;;
70967;SDS011;58629;48.808;8.820;2024-02-15T03:53:03;2.67;;;1.17;;
70967;SDS011;58629;48.808;8.820;2024-02-15T03:55:29;1.65;;;0.98;;
70967;SDS011;58629;48.808;8.820;2024-02-15T03:57:54;2.40;;;1.00;;
70967;SDS011;58629;48.808;8.820;2024-02-15T04:00:22;1.38;;;0.80;;
70967;SDS011;58629;48.808;8.820;2024-02-15T04:02:47;1.77;;;1.00;;
70967;SDS011;58629;48.808;8.820;2024-02-15T04:05:14;1.40;;;0.73;;
70967;SDS011;58629;48.808;8.820;2024-02-15T04:07:39;1.80;;;1.08;;
70967;SDS011;58629;48.808;8.820;2024-02-15T04:10:04;2.00;;;1.10;;
70967;SDS011;58629;48.808;8.820;2024-02-15T04:12:31;2.67;;;1.40;;
70967;SDS011;58629;48.808;8.820;2024-02-15T04:14:57;1.97;;;1.20;;
70967;SDS011;58629;48.808;8.820;2024-02-15T04:17:29;1.88;;;1.20;;
70967;SDS011;58629;48.808;8.820;2024-02-15T04:19:57;2.22;;;1.20;;
70967;SDS011;58629;48.808;8.820;2024-02-15T04:22:23;2.90;;;1.27;;
70967;SDS011;58629;48.808;8.820;2024-02-15T04:24:48;2.80;;;1.03;;
70967;SDS011;58629;48.808;8.820;2024-02-15T04:27:14;1.92;;;1.05;;
70967;SDS011;58629;48.808;8.820;2024-02-15T04:29:40;1.25;;;1.00;;
70967;SDS011;58629;48.808;8.820;2024-02-15T04:32:10;1.63;;;0.90;;
70967;SDS011;58629;48.808;8.820;2024-02-15T04:34:36;2.27;;;1.10;;
70967;SDS011;58629;48.808;8.820;2024-02-15T04:37:01;2.03;;;1.10;;
70967;SDS011;58629;48.808;8.820;2024-02-15T04:39:31;1.77;;;0.95;;
70967;SDS011;58629;48.808;8.820;2024-02-15T04:41:57;1.73;;;0.93;;
70967;SDS011;58629;48.808;8.820;2024-02-15T04:44:22;2.07;;;1.10;;
70967;SDS011;58629;48.808;8.820;2024-02-15T04:46:52;1.90;;;0.80;;
70967;SDS011;58629;48.808;8.820;2024-02-15T04:49:18;1.90;;;1.00;;
70967;SDS011;58629;48.808;8.820;2024-02-15T04:51:44;1.70;;;0.80;;
70967;SDS011;58629;48.808;8.820;2024-02-15T04:54:09;1.53;;;0.90;;
70967;SDS011;58629;48.808;8.820;2024-02-15T04:56:39;1.40;;;0.90;;
70967;SDS011;58629;48.808;8.820;2024-02-15T04:59:07;1.75;;;0.82;;
70967;SDS011;58629;48.808;8.820;2024-02-15T05:01:40;2.67;;;1.00;;
70967;SDS011;58629;48.808;8.820;2024-02-15T05:04:08;2.15;;;0.95;;
70967;SDS011;58629;48.808;8.820;2024-02-15T05:06:34;1.90;;;1.00;;
70967;SDS011;58629;48.808;8.820;2024-02-15T05:09:01;1.63;;;0.80;;
70967;SDS011;58629;48.808;8.820;2024-02-15T05:11:32;1.45;;;0.80;;
70967;SDS011;58629;48.808;8.820;2024-02-15T05:14:00;1.00;;;0.60;;
70967;SDS011;58629;48.808;8.820;2024-02-15T05:16:26;2.90;;;0.90;;
70967;SDS011;58629;48.808;8.820;2024-02-15T05:18:51;1.20;;;0.70;;
70967;SDS011;58629;48.808;8.820;2024-02-15T05:21:18;1.93;;;1.10;;
70967;SDS011;58629;48.808;8.820;2024-02-15T05:23:44;3.17;;;1.10;;
70967;SDS011;58629;48.808;8.820;2024-02-15T05:26:11;2.22;;;1.10;;
70967;SDS011;58629;48.808;8.820;2024-02-15T05:28:37;1.08;;;0.70;;
70967;SDS011;58629;48.808;8.820;2024-02-15T05:33:59;2.15;;;0.93;;
70967;SDS011;58629;48.808;8.820;2024-02-15T05:36:25;1.73;;;0.83;;
70967;SDS011;58629;48.808;8.820;2024-02-15T05:38:53;1.60;;;0.80;;
70967;SDS011;58629;48.808;8.820;2024-02-15T05:41:19;1.67;;;0.80;;
70967;SDS011;58629;48.808;8.820;2024-02-15T05:43:46;2.17;;;1.00;;
70967;SDS011;58629;48.808;8.820;2024-02-15T05:46:13;1.42;;;0.85;;
70967;SDS011;58629;48.808;8.820;2024-02-15T05:48:39;2.25;;;0.98;;
70967;SDS011;58629;48.808;8.820;2024-02-15T05:51:06;2.42;;;0.90;;
70967;SDS011;58629;48.808;8.820;2024-02-15T05:53:32;2.50;;;0.87;;
70967;SDS011;58629;48.808;8.820;2024-02-15T05:56:02;1.52;;;0.90;;
70967;SDS011;58629;48.808;8.820;2024-02-15T05:58:32;2.40;;;0.90;;
70967;SDS011;58629;48.808;8.820;2024-02-15T06:00:58;1.00;;;0.60;;
70967;SDS011;58629;48.808;8.820;2024-02-15T06:03:30;0.90;;;0.60;;
70967;SDS011;58629;48.808;8.820;2024-02-15T06:05:59;1.77;;;0.80;;
70967;SDS011;58629;48.808;8.820;2024-02-15T06:08:29;0.98;;;0.60;;
70967;SDS011;58629;48.808;8.820;2024-02-15T06:10:55;1.40;;;0.70;;
70967;SDS011;58629;48.808;8.820;2024-02-15T06:13:24;0.90;;;0.80;;
70967;SDS011;58629;48.808;8.820;2024-02-15T06:15:51;1.65;;;1.00;;
70967;SDS011;58629;48.808;8.820;2024-02-15T06:20:53;2.78;;;1.10;;
70967;SDS011;58629;48.808;8.820;2024-02-15T06:23:19;2.30;;;1.23;;
70967;SDS011;58629;48.808;8.820;2024-02-15T06:25:46;2.50;;;1.10;;
70967;SDS011;58629;48.808;8.820;2024-02-15T06:28:12;1.80;;;1.08;;
70967;SDS011;58629;48.808;8.820;2024-02-15T06:30:44;2.95;;;1.27;;
70967;SDS011;58629;48.808;8.820;2024-02-15T06:33:29;2.45;;;1.20;;
70967;SDS011;58629;48.808;8.820;2024-02-15T06:36:13;1.87;;;1.10;;
70967;SDS011;58629;48.808;8.820;2024-02-15T06:38:56;3.03;;;1.00;;
70967;SDS011;58629;48.808;8.820;2024-02-15T06:41:40;1.50;;;0.90;;
70967;SDS011;58629;48.808;8.820;2024-02-15T06:44:06;1.30;;;0.90;;
70967;SDS011;58629;48.808;8.820;2024-02-15T06:46:32;3.13;;;1.50;;
70967;SDS011;58629;48.808;8.820;2024-02-15T06:48:57;2.07;;;1.43;;
70967;SDS011;58629;48.808;8.820;2024-02-15T06:51:23;4.90;;;1.70;;
70967;SDS011;58629;48.808;8.820;2024-02-15T06:53:49;3.43;;;1.50;;
70967;SDS011;58629;48.808;8.820;2024-02-15T06:56:16;2.40;;;1.48;;
70967;SDS011;58629;48.808;8.820;2024-02-15T06:58:41;3.17;;;1.33;;
70967;SDS011;58629;48.808;8.820;2024-02-15T07:01:07;2.70;;;1.53;;
70967;SDS011;58629;48.808;8.820;2024-02-15T07:03:32;4.43;;;1.80;;
70967;SDS011;58629;48.808;8.820;2024-02-15T07:05:58;3.23;;;1.60;;
70967;SDS011;58629;48.808;8.820;2024-02-15T07:08:23;3.70;;;1.90;;
70967;SDS011;58629;48.808;8.820;2024-02-15T07:10:49;3.15;;;1.67;;
70967;SDS011;58629;48.808;8.820;2024-02-15T07:13:16;2.70;;;1.58;;
70967;SDS011;58629;48.808;8.820;2024-02-15T07:15:42;2.93;;;2.00;;
70967;SDS011;58629;48.808;8.820;2024-02-15T07:18:09;4.32;;;1.90;;
70967;SDS011;58629;48.808;8.820;2024-02-15T07:20:35;6.05;;;1.83;;
70967;SDS011;58629;48.808;8.820;2024-02-15T07:23:01;5.30;;;1.80;;
70967;SDS011;58629;48.808;8.820;2024-02-15T07:25:26;3.57;;;1.77;;
70967;SDS011;58629;48.808;8.820;2024-02-15T07:27:51;3.87;;;2.20;;
70967;SDS011;58629;48.808;8.820;2024-02-15T07:30:18;5.13;;;2.17;;
70967;SDS011;58629;48.808;8.820;2024-02-15T07:32:44;3.43;;;1.70;;
70967;SDS011;58629;48.808;8.820;2024-02-15T07:35:10;2.53;;;1.52;;
70967;SDS011;58629;48.808;8.820;2024-02-15T07:37:35;2.40;;;1.25;;
70967;SDS011;58629;48.808;8.820;2024-02-15T07:40:01;2.10;;;1.20;;
70967;SDS011;58629;48.808;8.820;2024-02-15T07:42:28;2.07;;;1.20;;
70967;SDS011;58629;48.808;8.820;2024-02-15T07:44:54;2.22;;;1.25;;
70967;SDS011;58629;48.808;8.820;2024-02-15T07:47:20;2.23;;;1.30;;
70967;SDS011;58629;48.808;8.820;2024-02-15T07:49:49;3.10;;;1.25;;
70967;SDS011;58629;48.808;8.820;2024-02-15T07:52:15;2.72;;;1.23;;
70967;SDS011;58629;48.808;8.820;2024-02-15T07:54:40;2.70;;;1.33;;
70967;SDS011;58629;48.808;8.820;2024-02-15T07:57:05;2.93;;;1.50;;
70967;SDS011;58629;48.808;8.820;2024-02-15T07:59:31;2.50;;;1.20;;
70967;SDS011;58629;48.808;8.820;2024-02-15T08:01:56;3.13;;;1.27;;
70967;SDS011;58629;48.808;8.820;2024-02-15T08:04:23;2.50;;;1.20;;
70967;SDS011;58629;48.808;8.820;2024-02-15T08:06:49;1.92;;;1.10;;
70967;SDS011;58629;48.808;8.820;2024-02-15T08:09:17;1.92;;;1.20;;
70967;SDS011;58629;48.808;8.820;2024-02-15T08:11:45;3.33;;;1.52;;
70967;SDS011;58629;48.808;8.820;2024-02-15T08:14:10;3.70;;;1.60;;
70967;SDS011;58629;48.808;8.820;2024-02-15T08:16:36;2.70;;;1.40;;
70967;SDS011;58629;48.808;8.820;2024-02-15T08:19:06;2.50;;;1.42;;
70967;SDS011;58629;48.808;8.820;2024-02-15T08:21:32;2.43;;;1.40;;
70967;SDS011;58629;48.808;8.820;2024-02-15T08:23:59;3.72;;;1.33;;
70967;SDS011;58629;48.808;8.820;2024-02-15T08:26:26;1.98;;;1.30;;
70967;SDS011;58629;48.808;8.820;2024-02-15T08:28:52;2.00;;;1.40;;
70967;SDS011;58629;48.808;8.820;2024-02-15T08:31:17;2.67;;;1.30;;
70967;SDS011;58629;48.808;8.820;2024-02-15T08:33:44;2.30;;;1.17;;
70967;SDS011;58629;48.808;8.820;2024-02-15T08:36:11;2.40;;;1.50;;
70967;SDS011;58629;48.808;8.820;2024-02-15T08:38:38;2.67;;;1.40;;
70967;SDS011;58629;48.808;8.820;2024-02-15T08:41:03;2.33;;;1.37;;
70967;SDS011;58629;48.808;8.820;2024-02-15T08:43:33;2.75;;;1.50;;
70967;SDS011;58629;48.808;8.820;2024-02-15T08:45:58;3.33;;;1.50;;
70967;SDS011;58629;48.808;8.820;2024-02-15T08:48:24;2.20;;;1.30;;
70967;SDS011;58629;48.808;8.820;2024-02-15T08:50:50;2.53;;;1.40;;
70967;SDS011;58629;48.808;8.820;2024-02-15T08:53:16;2.33;;;1.50;;
70967;SDS011;58629;48.808;8.820;2024-02-15T08:55:44;2.47;;;1.50;;
70967;SDS011;58629;48.808;8.820;2024-02-15T08:58:10;2.28;;;1.25;;
70967;SDS011;58629;48.808;8.820;2024-02-15T09:00:35;2.33;;;1.50;;
70967;SDS011;58629;48.808;8.820;2024-02-15T09:03:02;2.80;;;1.50;;
70967;SDS011;58629;48.808;8.820;2024-02-15T09:05:28;4.00;;;2.30;;
70967;SDS011;58629;48.808;8.820;2024-02-15T09:07:53;4.83;;;2.53;;
70967;SDS011;58629;48.808;8.820;2024-02-15T09:10:19;2.83;;;1.65;;
70967;SDS011;58629;48.808;8.820;2024-02-15T09:12:47;3.42;;;1.60;;
70967;SDS011;58629;48.808;8.820;2024-02-15T09:15:13;4.28;;;1.42;;
70967;SDS011;58629;48.808;8.820;2024-02-15T09:17:39;2.20;;;1.10;;
70967;SDS011;58629;48.808;8.820;2024-02-15T09:20:08;2.92;;;1.55;;
70967;SDS011;58629;48.808;8.820;2024-02-15T09:22:39;2.23;;;1.20;;
70967;SDS011;58629;48.808;8.820;2024-02-15T09:25:06;3.17;;;1.98;;
70967;SDS011;58629;48.808;8.820;2024-02-15T09:27:31;3.03;;;1.70;;
70967;SDS011;58629;48.808;8.820;2024-02-15T09:29:57;3.30;;;1.40;;
70967;SDS011;58629;48.808;8.820;2024-02-15T09:32:22;1.80;;;1.13;;
70967;SDS011;58629;48.808;8.820;2024-02-15T09:34:48;2.67;;;1.50;;
70967;SDS011;58629;48.808;8.820;2024-02-15T09:37:14;3.67;;;1.83;;
70967;SDS011;58629;48.808;8.820;2024-02-15T09:39:40;3.00;;;1.50;;
70967;SDS011;58629;48.808;8.820;2024-02-15T09:42:06;2.47;;;1.50;;
70967;SDS011;58629;48.808;8.820;2024-02-15T09:44:32;2.57;;;1.43;;
70967;SDS011;58629;48.808;8.820;2024-02-15T09:47:03;1.95;;;1.20;;
70967;SDS011;58629;48.808;8.820;2024-02-15T09:49:37;2.60;;;1.30;;
70967;SDS011;58629;48.808;8.820;2024-02-15T09:52:07;2.97;;;1.15;;
70967;SDS011;58629;48.808;8.820;2024-02-15T09:54:40;2.75;;;1.10;;
70967;SDS011;58629;48.808;8.820;2024-02-15T09:57:08;2.00;;;1.10;;
70967;SDS011;58629;48.808;8.820;2024-02-15T09:59:35;2.40;;;1.00;;
70967;SDS011;58629;48.808;8.820;2024-02-15T10:02:01;1.60;;;0.90;;
70967;SDS011;58629;48.808;8.820;2024-02-15T10:04:27;1.42;;;0.82;;
70967;SDS011;58629;48.808;8.820;2024-02-15T10:06:53;2.28;;;0.80;;
70967;SDS011;58629;48.808;8.820;2024-02-15T10:09:29;1.60;;;0.90;;
70967;SDS011;58629;48.808;8.820;2024-02-15T10:11:56;2.75;;;0.90;;
70967;SDS011;58629;48.808;8.820;2024-02-15T10:14:24;1.42;;;0.80;;
70967;SDS011;58629;48.808;8.820;2024-02-15T10:16:51;1.55;;;0.88;;
70967;SDS011;58629;48.808;8.820;2024-02-15T10:19:18;1.40;;;0.90;;
70967;SDS011;58629;48.808;8.820;2024-02-15T10:21:50;1.85;;;1.00;;
70967;SDS011;58629;48.808;8.820;2024-02-15T10:24:17;1.65;;;1.10;;
70967;SDS011;58629;48.808;8.820;2024-02-15T10:26:44;2.00;;;0.90;;
70967;SDS011;58629;48.808;8.820;2024-02-15T10:29:13;1.65;;;1.05;;
70967;SDS011;58629;48.808;8.820;2024-02-15T10:31:51;1.93;;;0.70;;
70967;SDS011;58629;48.808;8.820;2024-02-15T10:34:21;1.73;;;0.95;;
70967;SDS011;58629;48.808;8.820;2024-02-15T10:36:48;2.28;;;0.80;;
70967;SDS011;58629;48.808;8.820;2024-02-15T10:39:16;1.15;;;0.73;;
70967;SDS011;58629;48.808;8.820;2024-02-15T10:41:44;0.98;;;0.68;;
70967;SDS011;58629;48.808;8.820;2024-02-15T10:44:15;0.90;;;0.70;;
70967;SDS011;58629;48.808;8.820;2024-02-15T10:46:45;2.10;;;0.70;;
70967;SDS011;58629;48.808;8.820;2024-02-15T10:49:15;1.10;;;0.70;;
70967;SDS011;58629;48.808;8.820;2024-02-15T10:51:47;2.10;;;0.60;;
70967;SDS011;58629;48.808;8.820;2024-02-15T10:54:15;1.42;;;0.70;;
70967;SDS011;58629;48.808;8.820;2024-02-15T10:56:50;1.77;;;0.67;;
70967;SDS011;58629;48.808;8.820;2024-02-15T10:59:21;1.42;;;0.70;;
70967;SDS011;58629;48.808;8.820;2024-02-15T11:01:57;1.67;;;0.68;;
70967;SDS011;58629;48.808;8.820;2024-02-15T11:04:24;1.35;;;0.60;;
70967;SDS011;58629;48.808;8.820;2024-02-15T11:06:57;2.25;;;0.73;;
70967;SDS011;58629;48.808;8.820;2024-02-15T11:09:25;1.23;;;0.50;;
70967;SDS011;58629;48.808;8.820;2024-02-15T11:11:53;1.02;;;0.50;;
70967;SDS011;58629;48.808;8.820;2024-02-15T11:14:27;1.23;;;0.50;;
70967;SDS011;58629;48.808;8.820;2024-02-15T11:17:05;0.73;;;0.50;;
70967;SDS011;58629;48.808;8.820;2024-02-15T11:22:11;0.93;;;0.50;;
70967;SDS011;58629;48.808;8.820;2024-02-15T11:24:49;1.60;;;0.70;;
70967;SDS011;58629;48.808;8.820;2024-02-15T11:27:26;1.40;;;0.70;;
70967;SDS011;58629;48.808;8.820;2024-02-15T11:29:55;1.55;;;0.60;;
70967;SDS011;58629;48.808;8.820;2024-02-15T11:32:43;1.10;;;0.40;;
70967;SDS011;58629;48.808;8.820;2024-02-15T11:35:16;1.00;;;0.50;;
70967;SDS011;58629;48.808;8.820;2024-02-15T11:42:44;1.10;;;0.50;;
70967;SDS011;58629;48.808;8.820;2024-02-15T11:45:11;2.13;;;0.60;;
70967;SDS011;58629;48.808;8.820;2024-02-15T11:47:38;2.37;;;0.80;;
70967;SDS011;58629;48.808;8.820;2024-02-15T11:50:07;2.08;;;0.80;;
70967;SDS011;58629;48.808;8.820;2024-02-15T11:52:37;1.25;;;0.60;;
70967;SDS011;58629;48.808;8.820;2024-02-15T11:55:05;1.08;;;0.60;;
70967;SDS011;58629;48.808;8.820;2024-02-15T11:57:37;2.65;;;0.60;;
70967;SDS011;58629;48.808;8.820;2024-02-15T12:00:22;2.70;;;0.70;;
70967;SDS011;58629;48.808;8.820;2024-02-15T12:03:07;1.40;;;0.50;;
70967;SDS011;58629;48.808;8.820;2024-02-15T12:05:51;1.98;;;0.50;;
70967;SDS011;58629;48.808;8.820;2024-02-15T12:08:35;1.15;;;0.43;;
70967;SDS011;58629;48.808;8.820;2024-02-15T12:11:20;1.67;;;0.50;;
70967;SDS011;58629;48.808;8.820;2024-02-15T12:14:03;1.80;;;0.50;;
70967;SDS011;58629;48.808;8.820;2024-02-15T12:16:58;1.27;;;0.70;;
70967;SDS011;58629;48.808;8.820;2024-02-15T12:19:43;0.90;;;0.50;;
70967;SDS011;58629;48.808;8.820;2024-02-15T12:22:08;1.30;;;0.50;;
70967;SDS011;58629;48.808;8.820;2024-02-15T12:24:34;1.33;;;0.60;;
70967;SDS011;58629;48.808;8.820;2024-02-15T12:27:00;1.33;;;0.60;;
70967;SDS011;58629;48.808;8.820;2024-02-15T12:29:28;1.15;;;0.80;;
70967;SDS011;58629;48.808;8.820;2024-02-15T12:31:54;0.90;;;0.50;;
70967;SDS011;58629;48.808;8.820;2024-02-15T12:34:20;1.10;;;0.60;;
70967;SDS011;58629;48.808;8.820;2024-02-15T12:36:45;0.63;;;0.40;;
70967;SDS011;58629;48.808;8.820;2024-02-15T12:39:14;1.90;;;0.60;;
70967;SDS011;58629;48.808;8.820;2024-02-15T12:41:47;1.30;;;0.60;;
70967;SDS011;58629;48.808;8.820;2024-02-15T12:44:18;1.20;;;0.60;;
70967;SDS011;58629;48.808;8.820;2024-02-15T12:46:47;2.92;;;1.00;;
70967;SDS011;58629;48.808;8.820;2024-02-15T12:51:50;1.30;;;0.60;;
70967;SDS011;58629;48.808;8.820;2024-02-15T12:54:19;1.50;;;0.80;;
70967;SDS011;58629;48.808;8.820;2024-02-15T12:56:46;1.00;;;0.63;;
70967;SDS011;58629;48.808;8.820;2024-02-15T12:59:13;1.55;;;0.63;;
70967;SDS011;58629;48.808;8.820;2024-02-15T13:01:39;1.05;;;0.50;;
70967;SDS011;58629;48.808;8.820;2024-02-15T13:04:05;1.10;;;0.70;;
70967;SDS011;58629;48.808;8.820;2024-02-15T13:06:31;1.60;;;0.70;;
70967;SDS011;58629;48.808;8.820;2024-02-15T13:08:59;1.23;;;0.70;;
70967;SDS011;58629;48.808;8.820;2024-02-15T13:11:26;1.15;;;0.60;;
70967;SDS011;58629;48.808;8.820;2024-02-15T13:13:52;1.80;;;0.80;;
70967;SDS011;58629;48.808;8.820;2024-02-15T13:16:17;1.15;;;0.75;;
70967;SDS011;58629;48.808;8.820;2024-02-15T13:18:44;2.27;;;1.00;;
70967;SDS011;58629;48.808;8.820;2024-02-15T13:21:12;1.60;;;0.82;;
70967;SDS011;58629;48.808;8.820;2024-02-15T13:23:37;2.23;;;0.70;;
70967;SDS011;58629;48.808;8.820;2024-02-15T13:26:02;3.67;;;1.00;;
70967;SDS011;58629;48.808;8.820;2024-02-15T13:28:29;1.77;;;0.68;;
70967;SDS011;58629;48.808;8.820;2024-02-15T13:30:55;2.70;;;0.85;;
70967;SDS011;58629;48.808;8.820;2024-02-15T13:33:21;2.47;;;1.00;;
70967;SDS011;58629;48.808;8.820;2024-02-15T13:35:47;1.58;;;0.75;;
70967;SDS011;58629;48.808;8.820;2024-02-15T13:38:14;1.92;;;1.02;;
70967;SDS011;58629;48.808;8.820;2024-02-15T13:40:47;3.05;;;1.05;;
70967;SDS011;58629;48.808;8.820;2024-02-15T13:43:16;2.13;;;1.10;;
70967;SDS011;58629;48.808;8.820;2024-02-15T13:45:42;1.20;;;0.70;;
70967;SDS011;58629;48.808;8.820;2024-02-15T13:48:09;1.42;;;0.80;;
70967;SDS011;58629;48.808;8.820;2024-02-15T13:50:38;1.35;;;0.82;;
70967;SDS011;58629;48.808;8.820;2024-02-15T13:53:04;1.63;;;0.80;;
70967;SDS011;58629;48.808;8.820;2024-02-15T13:55:30;1.50;;;0.80;;
70967;SDS011;58629;48.808;8.820;2024-02-15T13:57:55;1.48;;;0.90;;
70967;SDS011;58629;48.808;8.820;2024-02-15T14:00:21;2.63;;;1.20;;
70967;SDS011;58629;48.808;8.820;2024-02-15T14:02:48;2.38;;;1.20;;
70967;SDS011;58629;48.808;8.820;2024-02-15T14:05:18;2.53;;;1.33;;
70967;SDS011;58629;48.808;8.820;2024-02-15T14:07:48;2.03;;;1.10;;
70967;SDS011;58629;48.808;8.820;2024-02-15T14:10:20;2.22;;;1.08;;
70967;SDS011;58629;48.808;8.820;2024-02-15T14:12:48;2.72;;;1.30;;
70967;SDS011;58629;48.808;8.820;2024-02-15T14:15:15;3.25;;;1.30;;
70967;SDS011;58629;48.808;8.820;2024-02-15T14:17:42;5.80;;;1.50;;
70967;SDS011;58629;48.808;8.820;2024-02-15T14:20:09;4.13;;;1.70;;
70967;SDS011;58629;48.808;8.820;2024-02-15T14:22:38;2.72;;;1.50;;
70967;SDS011;58629;48.808;8.820;2024-02-15T14:25:23;2.30;;;1.40;;
70967;SDS011;58629;48.808;8.820;2024-02-15T14:27:53;2.35;;;1.25;;
70967;SDS011;58629;48.808;8.820;2024-02-15T14:30:19;3.25;;;1.50;;
70967;SDS011;58629;48.808;8.820;2024-02-15T14:33:03;2.22;;;1.45;;
70967;SDS011;58629;48.808;8.820;2024-02-15T14:35:33;1.95;;;1.40;;
70967;SDS011;58629;48.808;8.820;2024-02-15T14:38:00;2.00;;;1.20;;
70967;SDS011;58629;48.808;8.820;2024-02-15T14:40:36;1.60;;;0.95;;
70967;SDS011;58629;48.808;8.820;2024-02-15T14:43:02;1.42;;;0.90;;
70967;SDS011;58629;48.808;8.820;2024-02-15T14:45:29;2.35;;;1.20;;
70967;SDS011;58629;48.808;8.820;2024-02-15T14:47:58;2.03;;;1.30;;
70967;SDS011;58629;48.808;8.820;2024-02-15T14:50:24;2.53;;;1.50;;
70967;SDS011;58629;48.808;8.820;2024-02-15T14:52:50;3.17;;;1.50;;
70967;SDS011;58629;48.808;8.820;2024-02-15T14:55:18;2.35;;;1.30;;
70967;SDS011;58629;48.808;8.820;2024-02-15T14:57:47;1.75;;;1.20;;
70967;SDS011;58629;48.808;8.820;2024-02-15T15:00:13;2.07;;;1.30;;
70967;SDS011;58629;48.808;8.820;2024-02-15T15:02:39;2.15;;;1.40;;
70967;SDS011;58629;48.808;8.820;2024-02-15T15:05:08;2.22;;;1.27;;
70967;SDS011;58629;48.808;8.820;2024-02-15T15:07:52;1.95;;;1.20;;